sensor_id;sensor_type;location;lat;lon;timestamp;pressure;altitude;pressure_sealevel;temperature;humidity
62333;BME280;48624;49.812;8.562;2022-09-24T00:01:13;100315.31;;;12.06;84.31
62333;BME280;48624;49.812;8.562;2022-09-24T00:03:40;100310.72;;;12.08;84.32
62333;BME280;48624;49.812;8.562;2022-09-24T00:06:07;100315.06;;;12.09;83.75
62333;BME280;48624;49.812;8.562;2022-09-24T00:08:33;100305.97;;;12.00;84.51
62333;BME280;48624;49.812;8.562;2022-09-24T00:11:04;100304.81;;;12.04;84.18
62333;BME280;48624;49.812;8.562;2022-09-24T00:13:31;100303.97;;;12.04;84.18
62333;BME280;48624;49.812;8.562;2022-09-24T00:16:01;100313.09;;;12.00;84.24
62333;BME280;48624;49.812;8.562;2022-09-24T00:18:27;100311.41;;;11.99;84.70
62333;BME280;48624;49.812;8.562;2022-09-24T00:20:53;100305.25;;;11.98;84.53
62333;BME280;48624;49.812;8.562;2022-09-24T00:23:18;100306.22;;;11.97;84.33
62333;BME280;48624;49.812;8.562;2022-09-24T00:25:45;100310.56;;;11.98;83.96
62333;BME280;48624;49.812;8.562;2022-09-24T00:28:29;100317.75;;;11.85;84.92
62333;BME280;48624;49.812;8.562;2022-09-24T00:30:55;100308.25;;;11.82;84.92
62333;BME280;48624;49.812;8.562;2022-09-24T00:33:25;100307.16;;;11.85;84.67
62333;BME280;48624;49.812;8.562;2022-09-24T00:35:50;100314.53;;;11.81;85.10
62333;BME280;48624;49.812;8.562;2022-09-24T00:38:16;100308.44;;;11.68;86.31
62333;BME280;48624;49.812;8.562;2022-09-24T00:40:41;100308.97;;;11.48;87.28
62333;BME280;48624;49.812;8.562;2022-09-24T00:43:26;100311.72;;;11.47;86.30
62333;BME280;48624;49.812;8.562;2022-09-24T00:45:54;100308.69;;;11.40;86.65
62333;BME280;48624;49.812;8.562;2022-09-24T00:48:20;100309.91;;;11.72;84.46
62333;BME280;48624;49.812;8.562;2022-09-24T00:50:47;100303.31;;;11.53;84.88
62333;BME280;48624;49.812;8.562;2022-09-24T00:53:16;100299.75;;;11.41;85.78
62333;BME280;48624;49.812;8.562;2022-09-24T00:55:44;100299.25;;;11.36;86.27
62333;BME280;48624;49.812;8.562;2022-09-24T00:58:11;100295.88;;;11.34;86.59
62333;BME280;48624;49.812;8.562;2022-09-24T01:00:39;100291.75;;;11.30;86.84
62333;BME280;48624;49.812;8.562;2022-09-24T01:03:10;100285.94;;;11.24;86.94
62333;BME280;48624;49.812;8.562;2022-09-24T01:05:37;100280.13;;;11.19;86.97
62333;BME280;48624;49.812;8.562;2022-09-24T01:08:05;100273.69;;;11.10;87.90
62333;BME280;48624;49.812;8.562;2022-09-24T01:11:01;100269.50;;;10.95;88.61
62333;BME280;48624;49.812;8.562;2022-09-24T01:13:35;100274.97;;;11.05;87.46
62333;BME280;48624;49.812;8.562;2022-09-24T01:16:13;100261.44;;;10.96;87.60
62333;BME280;48624;49.812;8.562;2022-09-24T01:18:45;100260.94;;;10.91;88.09
62333;BME280;48624;49.812;8.562;2022-09-24T01:21:31;100253.19;;;10.88;87.50
62333;BME280;48624;49.812;8.562;2022-09-24T01:32:24;100250.09;;;10.70;87.07
62333;BME280;48624;49.812;8.562;2022-09-24T01:35:00;100249.16;;;10.58;87.96
62333;BME280;48624;49.812;8.562;2022-09-24T01:37:31;100254.13;;;10.50;88.50
62333;BME280;48624;49.812;8.562;2022-09-24T01:39:58;100251.91;;;10.57;87.75
62333;BME280;48624;49.812;8.562;2022-09-24T01:42:26;100253.88;;;10.66;86.30
62333;BME280;48624;49.812;8.562;2022-09-24T01:44:53;100259.75;;;10.58;86.90
62333;BME280;48624;49.812;8.562;2022-09-24T01:47:28;100261.66;;;10.56;87.06
62333;BME280;48624;49.812;8.562;2022-09-24T01:49:54;100250.09;;;10.57;87.08
62333;BME280;48624;49.812;8.562;2022-09-24T01:52:24;100254.13;;;10.50;87.49
62333;BME280;48624;49.812;8.562;2022-09-24T01:54:54;100245.22;;;10.38;88.82
62333;BME280;48624;49.812;8.562;2022-09-24T01:57:24;100245.44;;;10.35;89.06
62333;BME280;48624;49.812;8.562;2022-09-24T02:02:49;100239.75;;;10.15;89.86
62333;BME280;48624;49.812;8.562;2022-09-24T02:05:30;100244.19;;;10.14;90.12
62333;BME280;48624;49.812;8.562;2022-09-24T02:08:23;100238.78;;;10.03;90.92
62333;BME280;48624;49.812;8.562;2022-09-24T02:10:55;100236.78;;;10.07;90.56
62333;BME280;48624;49.812;8.562;2022-09-24T02:13:23;100244.72;;;9.94;91.70
62333;BME280;48624;49.812;8.562;2022-09-24T02:15:56;100235.22;;;9.91;91.43
62333;BME280;48624;49.812;8.562;2022-09-24T02:18:28;100221.03;;;9.92;91.15
62333;BME280;48624;49.812;8.562;2022-09-24T02:20:59;100221.22;;;9.89;91.42
62333;BME280;48624;49.812;8.562;2022-09-24T02:23:27;100223.69;;;9.92;90.98
62333;BME280;48624;49.812;8.562;2022-09-24T02:25:57;100223.13;;;9.87;91.16
62333;BME280;48624;49.812;8.562;2022-09-24T02:28:25;100216.88;;;9.88;91.25
62333;BME280;48624;49.812;8.562;2022-09-24T02:30:56;100222.94;;;9.77;91.72
62333;BME280;48624;49.812;8.562;2022-09-24T02:33:24;100226.72;;;9.73;91.28
62333;BME280;48624;49.812;8.562;2022-09-24T02:36:10;100223.44;;;9.69;91.50
62333;BME280;48624;49.812;8.562;2022-09-24T02:38:37;100221.84;;;9.67;91.16
62333;BME280;48624;49.812;8.562;2022-09-24T02:41:04;100226.69;;;9.60;91.41
62333;BME280;48624;49.812;8.562;2022-09-24T02:43:32;100230.19;;;9.61;91.11
62333;BME280;48624;49.812;8.562;2022-09-24T02:45:59;100232.34;;;9.81;88.09
62333;BME280;48624;49.812;8.562;2022-09-24T02:48:24;100225.56;;;9.64;89.25
62333;BME280;48624;49.812;8.562;2022-09-24T02:50:49;100224.66;;;9.51;90.08
62333;BME280;48624;49.812;8.562;2022-09-24T02:53:15;100223.28;;;9.45;89.95
62333;BME280;48624;49.812;8.562;2022-09-24T02:55:40;100233.22;;;9.41;89.98
62333;BME280;48624;49.812;8.562;2022-09-24T02:58:05;100215.44;;;9.30;90.08
62333;BME280;48624;49.812;8.562;2022-09-24T03:00:31;100214.53;;;9.17;90.57
62333;BME280;48624;49.812;8.562;2022-09-24T03:02:56;100225.72;;;9.08;90.63
62333;BME280;48624;49.812;8.562;2022-09-24T03:05:21;100230.34;;;9.04;90.99
62333;BME280;48624;49.812;8.562;2022-09-24T03:07:47;100235.78;;;8.88;91.26
62333;BME280;48624;49.812;8.562;2022-09-24T03:10:12;100230.59;;;8.86;91.20
62333;BME280;48624;49.812;8.562;2022-09-24T03:12:38;100231.38;;;8.88;90.73
62333;BME280;48624;49.812;8.562;2022-09-24T03:15:04;100245.91;;;8.81;91.08
62333;BME280;48624;49.812;8.562;2022-09-24T03:17:30;100242.81;;;8.74;92.03
62333;BME280;48624;49.812;8.562;2022-09-24T03:19:55;100238.94;;;8.66;93.38
62333;BME280;48624;49.812;8.562;2022-09-24T03:22:20;100237.81;;;8.70;92.86
62333;BME280;48624;49.812;8.562;2022-09-24T03:24:45;100238.78;;;8.69;93.00
62333;BME280;48624;49.812;8.562;2022-09-24T03:27:11;100243.00;;;8.71;92.86
62333;BME280;48624;49.812;8.562;2022-09-24T03:29:36;100228.31;;;8.67;92.28
62333;BME280;48624;49.812;8.562;2022-09-24T03:32:20;100225.66;;;8.53;94.09
62333;BME280;48624;49.812;8.562;2022-09-24T03:34:45;100221.72;;;8.60;93.90
62333;BME280;48624;49.812;8.562;2022-09-24T03:37:10;100215.94;;;8.68;93.18
62333;BME280;48624;49.812;8.562;2022-09-24T03:39:36;100213.28;;;8.68;93.43
62333;BME280;48624;49.812;8.562;2022-09-24T03:42:01;100208.56;;;8.73;93.43
62333;BME280;48624;49.812;8.562;2022-09-24T03:44:26;100209.66;;;8.83;92.73
62333;BME280;48624;49.812;8.562;2022-09-24T03:46:52;100201.97;;;8.80;93.57
62333;BME280;48624;49.812;8.562;2022-09-24T03:49:17;100191.91;;;8.85;92.88
62333;BME280;48624;49.812;8.562;2022-09-24T03:51:43;100195.47;;;8.99;91.75
62333;BME280;48624;49.812;8.562;2022-09-24T03:54:08;100187.09;;;8.92;93.07
62333;BME280;48624;49.812;8.562;2022-09-24T03:56:33;100187.19;;;8.91;93.20
62333;BME280;48624;49.812;8.562;2022-09-24T03:58:59;100189.63;;;8.94;92.98
62333;BME280;48624;49.812;8.562;2022-09-24T04:01:24;100187.09;;;8.92;92.76
62333;BME280;48624;49.812;8.562;2022-09-24T04:03:49;100181.91;;;8.91;92.33
62333;BME280;48624;49.812;8.562;2022-09-24T04:06:15;100181.81;;;8.92;92.35
62333;BME280;48624;49.812;8.562;2022-09-24T04:08:40;100178.97;;;8.95;91.72
62333;BME280;48624;49.812;8.562;2022-09-24T04:11:05;100193.53;;;8.88;91.22
62333;BME280;48624;49.812;8.562;2022-09-24T04:13:31;100179.56;;;8.86;91.27
62333;BME280;48624;49.812;8.562;2022-09-24T04:16:03;100184.06;;;8.71;91.06
62333;BME280;48624;49.812;8.562;2022-09-24T04:18:28;100173.63;;;8.55;92.11
62333;BME280;48624;49.812;8.562;2022-09-24T04:21:00;100178.66;;;8.30;92.58
62333;BME280;48624;49.812;8.562;2022-09-24T04:23:26;100178.69;;;8.43;91.53
62333;BME280;48624;49.812;8.562;2022-09-24T04:25:51;100183.81;;;8.32;91.75
62333;BME280;48624;49.812;8.562;2022-09-24T04:28:18;100180.31;;;8.46;90.83
62333;BME280;48624;49.812;8.562;2022-09-24T04:30:44;100179.84;;;8.39;91.10
62333;BME280;48624;49.812;8.562;2022-09-24T04:33:09;100179.69;;;8.28;92.66
62333;BME280;48624;49.812;8.562;2022-09-24T04:35:35;100187.41;;;8.31;93.08
62333;BME280;48624;49.812;8.562;2022-09-24T04:38:05;100184.75;;;8.31;93.20
62333;BME280;48624;49.812;8.562;2022-09-24T04:40:31;100186.28;;;8.35;93.04
62333;BME280;48624;49.812;8.562;2022-09-24T04:42:56;100184.31;;;8.24;94.30
62333;BME280;48624;49.812;8.562;2022-09-24T04:45:22;100184.75;;;8.31;93.64
62333;BME280;48624;49.812;8.562;2022-09-24T04:47:50;100182.03;;;8.32;92.58
62333;BME280;48624;49.812;8.562;2022-09-24T04:50:26;100178.66;;;8.30;92.40
62333;BME280;48624;49.812;8.562;2022-09-24T04:52:53;100182.69;;;8.36;92.68
62333;BME280;48624;49.812;8.562;2022-09-24T04:55:19;100182.13;;;8.31;93.26
62333;BME280;48624;49.812;8.562;2022-09-24T04:57:44;100179.78;;;8.26;93.66
62333;BME280;48624;49.812;8.562;2022-09-24T05:00:12;100188.44;;;8.28;93.48
62333;BME280;48624;49.812;8.562;2022-09-24T05:02:42;100179.56;;;8.29;93.81
62333;BME280;48624;49.812;8.562;2022-09-24T05:05:08;100186.44;;;8.32;93.50
62333;BME280;48624;49.812;8.562;2022-09-24T05:07:33;100189.09;;;8.32;93.44
62333;BME280;48624;49.812;8.562;2022-09-24T05:09:59;100189.47;;;8.40;92.43
62333;BME280;48624;49.812;8.562;2022-09-24T05:12:26;100192.38;;;8.36;91.97
62333;BME280;48624;49.812;8.562;2022-09-24T05:14:51;100190.97;;;8.15;92.08
62333;BME280;48624;49.812;8.562;2022-09-24T05:17:16;100187.97;;;7.93;92.42
62333;BME280;48624;49.812;8.562;2022-09-24T05:19:43;100176.38;;;8.10;91.72
62333;BME280;48624;49.812;8.562;2022-09-24T05:22:09;100188.81;;;8.08;92.09
62333;BME280;48624;49.812;8.562;2022-09-24T05:24:34;100196.00;;;8.05;92.49
62333;BME280;48624;49.812;8.562;2022-09-24T05:27:00;100191.28;;;8.11;92.50
62333;BME280;48624;49.812;8.562;2022-09-24T05:29:41;100194.38;;;8.03;92.71
62333;BME280;48624;49.812;8.562;2022-09-24T05:32:12;100184.41;;;7.94;93.76
62333;BME280;48624;49.812;8.562;2022-09-24T05:34:38;100186.19;;;8.08;93.17
62333;BME280;48624;49.812;8.562;2022-09-24T05:37:05;100198.63;;;8.20;92.80
62333;BME280;48624;49.812;8.562;2022-09-24T05:39:31;100203.59;;;8.25;93.41
62333;BME280;48624;49.812;8.562;2022-09-24T05:41:56;100206.63;;;8.33;93.81
62333;BME280;48624;49.812;8.562;2022-09-24T05:44:22;100209.63;;;8.41;93.54
62333;BME280;48624;49.812;8.562;2022-09-24T05:46:49;100217.47;;;8.57;93.32
62333;BME280;48624;49.812;8.562;2022-09-24T05:49:14;100220.09;;;8.57;93.79
62333;BME280;48624;49.812;8.562;2022-09-24T05:51:39;100209.53;;;8.72;92.62
62333;BME280;48624;49.812;8.562;2022-09-24T05:54:05;100201.88;;;8.67;93.12
62333;BME280;48624;49.812;8.562;2022-09-24T05:56:30;100206.22;;;8.68;94.02
62333;BME280;48624;49.812;8.562;2022-09-24T05:58:56;100205.69;;;8.63;94.77
62333;BME280;48624;49.812;8.562;2022-09-24T06:01:21;100203.19;;;8.74;93.59
62333;BME280;48624;49.812;8.562;2022-09-24T06:03:46;100203.97;;;8.62;93.85
62333;BME280;48624;49.812;8.562;2022-09-24T06:06:12;100203.13;;;8.62;94.00
62333;BME280;48624;49.812;8.562;2022-09-24T06:08:37;100203.59;;;8.68;93.90
62333;BME280;48624;49.812;8.562;2022-09-24T06:11:05;100201.75;;;8.83;93.23
62333;BME280;48624;49.812;8.562;2022-09-24T06:13:31;100210.59;;;8.97;93.11
62333;BME280;48624;49.812;8.562;2022-09-24T06:16:09;100206.84;;;9.14;92.02
62333;BME280;48624;49.812;8.562;2022-09-24T06:18:37;100201.03;;;9.22;92.58
62333;BME280;48624;49.812;8.562;2022-09-24T06:21:06;100205.31;;;9.37;91.68
62333;BME280;48624;49.812;8.562;2022-09-24T06:23:32;100202.34;;;9.42;91.99
62333;BME280;48624;49.812;8.562;2022-09-24T06:25:58;100209.41;;;9.41;92.85
62333;BME280;48624;49.812;8.562;2022-09-24T06:28:25;100214.84;;;9.53;93.02
62333;BME280;48624;49.812;8.562;2022-09-24T06:30:50;100215.63;;;9.68;92.46
62333;BME280;48624;49.812;8.562;2022-09-24T06:33:16;100207.06;;;9.77;91.76
62333;BME280;48624;49.812;8.562;2022-09-24T06:35:43;100210.75;;;9.75;91.61
62333;BME280;48624;49.812;8.562;2022-09-24T06:38:12;100218.06;;;9.84;91.77
62333;BME280;48624;49.812;8.562;2022-09-24T06:40:39;100222.50;;;9.96;91.97
62333;BME280;48624;49.812;8.562;2022-09-24T06:43:05;100229.06;;;10.04;92.24
62333;BME280;48624;49.812;8.562;2022-09-24T06:45:31;100228.19;;;10.16;92.71
62333;BME280;48624;49.812;8.562;2022-09-24T06:47:58;100229.38;;;10.25;92.75
62333;BME280;48624;49.812;8.562;2022-09-24T06:50:26;100222.19;;;10.14;93.68
62333;BME280;48624;49.812;8.562;2022-09-24T06:52:52;100225.94;;;10.36;92.79
62333;BME280;48624;49.812;8.562;2022-09-24T06:55:18;100225.56;;;10.42;92.29
62333;BME280;48624;49.812;8.562;2022-09-24T06:57:43;100230.94;;;10.53;91.94
62333;BME280;48624;49.812;8.562;2022-09-24T07:00:11;100223.38;;;10.60;91.38
62333;BME280;48624;49.812;8.562;2022-09-24T07:02:37;100228.97;;;10.68;91.88
62333;BME280;48624;49.812;8.562;2022-09-24T07:05:03;100225.84;;;10.63;91.67
62333;BME280;48624;49.812;8.562;2022-09-24T07:07:29;100223.75;;;10.80;91.66
62333;BME280;48624;49.812;8.562;2022-09-24T07:09:57;100218.34;;;11.06;90.80
62333;BME280;48624;49.812;8.562;2022-09-24T07:12:29;100221.16;;;11.40;89.22
62333;BME280;48624;49.812;8.562;2022-09-24T07:14:56;100227.44;;;11.50;88.40
62333;BME280;48624;49.812;8.562;2022-09-24T07:17:22;100236.34;;;11.85;86.49
62333;BME280;48624;49.812;8.562;2022-09-24T07:19:47;100239.75;;;11.51;88.77
62333;BME280;48624;49.812;8.562;2022-09-24T07:22:13;100239.81;;;11.74;87.90
62333;BME280;48624;49.812;8.562;2022-09-24T07:24:38;100247.16;;;12.18;85.74
62333;BME280;48624;49.812;8.562;2022-09-24T07:27:04;100246.38;;;12.04;86.15
62333;BME280;48624;49.812;8.562;2022-09-24T07:29:30;100244.50;;;12.06;86.61
62333;BME280;48624;49.812;8.562;2022-09-24T07:31:55;100258.38;;;12.21;85.55
62333;BME280;48624;49.812;8.562;2022-09-24T07:34:20;100254.50;;;12.37;85.15
62333;BME280;48624;49.812;8.562;2022-09-24T07:36:45;100253.69;;;12.25;86.50
62333;BME280;48624;49.812;8.562;2022-09-24T07:39:11;100245.47;;;12.17;87.19
62333;BME280;48624;49.812;8.562;2022-09-24T07:41:36;100251.28;;;12.33;87.26
62333;BME280;48624;49.812;8.562;2022-09-24T07:44:05;100251.97;;;12.47;86.08
62333;BME280;48624;49.812;8.562;2022-09-24T07:46:34;100252.47;;;12.29;86.77
62333;BME280;48624;49.812;8.562;2022-09-24T07:48:59;100255.47;;;12.59;85.71
62333;BME280;48624;49.812;8.562;2022-09-24T07:51:26;100251.13;;;12.24;87.65
62333;BME280;48624;49.812;8.562;2022-09-24T07:53:53;100252.22;;;12.55;87.28
62333;BME280;48624;49.812;8.562;2022-09-24T07:56:19;100262.06;;;12.87;85.81
62333;BME280;48624;49.812;8.562;2022-09-24T07:58:48;100257.41;;;13.12;84.57
62333;BME280;48624;49.812;8.562;2022-09-24T08:01:14;100259.59;;;13.40;83.84
62333;BME280;48624;49.812;8.562;2022-09-24T08:03:42;100252.22;;;13.43;82.36
62333;BME280;48624;49.812;8.562;2022-09-24T08:06:07;100256.88;;;13.63;82.20
62333;BME280;48624;49.812;8.562;2022-09-24T08:08:33;100262.53;;;13.69;81.77
62333;BME280;48624;49.812;8.562;2022-09-24T08:11:21;100263.13;;;13.94;80.33
62333;BME280;48624;49.812;8.562;2022-09-24T08:13:47;100263.13;;;13.94;81.57
62333;BME280;48624;49.812;8.562;2022-09-24T08:16:12;100266.03;;;14.12;80.74
62333;BME280;48624;49.812;8.562;2022-09-24T08:18:41;100266.81;;;14.34;79.27
62333;BME280;48624;49.812;8.562;2022-09-24T08:21:10;100263.34;;;14.43;78.69
62333;BME280;48624;49.812;8.562;2022-09-24T08:23:40;100258.47;;;14.49;77.86
62333;BME280;48624;49.812;8.562;2022-09-24T08:26:10;100262.69;;;14.51;77.53
62333;BME280;48624;49.812;8.562;2022-09-24T08:28:39;100260.44;;;14.56;77.74
62333;BME280;48624;49.812;8.562;2022-09-24T08:31:10;100252.75;;;14.53;78.15
62333;BME280;48624;49.812;8.562;2022-09-24T08:33:48;100253.53;;;14.44;77.46
62333;BME280;48624;49.812;8.562;2022-09-24T08:36:15;100249.38;;;14.61;77.91
62333;BME280;48624;49.812;8.562;2022-09-24T08:38:40;100247.28;;;14.65;77.70
62333;BME280;48624;49.812;8.562;2022-09-24T08:50:16;100248.97;;;14.56;78.21
62333;BME280;48624;49.812;8.562;2022-09-24T08:55:26;100246.22;;;14.77;78.24
62333;BME280;48624;49.812;8.562;2022-09-24T08:58:43;100243.13;;;14.41;79.64
62333;BME280;48624;49.812;8.562;2022-09-24T09:09:24;100260.22;;;15.50;75.21
62333;BME280;48624;49.812;8.562;2022-09-24T09:12:03;100263.84;;;15.59;74.32
62333;BME280;48624;49.812;8.562;2022-09-24T09:14:54;100258.78;;;15.56;74.26
62333;BME280;48624;49.812;8.562;2022-09-24T09:18:06;100256.25;;;15.54;74.72
62333;BME280;48624;49.812;8.562;2022-09-24T09:20:44;100244.59;;;15.35;75.36
62333;BME280;48624;49.812;8.562;2022-09-24T09:23:19;100251.19;;;15.02;77.84
62333;BME280;48624;49.812;8.562;2022-09-24T09:26:06;100248.25;;;15.05;76.89
62333;BME280;48624;49.812;8.562;2022-09-24T09:28:33;100255.56;;;15.32;76.50
62333;BME280;48624;49.812;8.562;2022-09-24T09:34:13;100254.41;;;15.94;74.22
62333;BME280;48624;49.812;8.562;2022-09-24T09:37:08;100264.38;;;16.02;72.92
62333;BME280;48624;49.812;8.562;2022-09-24T09:39:50;100262.91;;;16.27;71.96
62333;BME280;48624;49.812;8.562;2022-09-24T09:42:32;100263.63;;;16.57;69.67
62333;BME280;48624;49.812;8.562;2022-09-24T09:45:35;100259.50;;;16.35;70.60
62333;BME280;48624;49.812;8.562;2022-09-24T09:48:07;100256.88;;;16.53;70.19
62333;BME280;48624;49.812;8.562;2022-09-24T09:50:43;100251.13;;;16.76;68.99
62333;BME280;48624;49.812;8.562;2022-09-24T09:53:20;100258.19;;;16.95;67.98
62333;BME280;48624;49.812;8.562;2022-09-24T09:56:05;100239.09;;;16.90;67.39
62333;BME280;48624;49.812;8.562;2022-09-24T09:58:47;100244.66;;;16.97;67.53
62333;BME280;48624;49.812;8.562;2022-09-24T10:01:30;100237.22;;;17.37;66.64
62333;BME280;48624;49.812;8.562;2022-09-24T10:13:04;100245.19;;;17.73;63.12
62333;BME280;48624;49.812;8.562;2022-09-24T10:15:47;100253.66;;;17.60;63.33
62333;BME280;48624;49.812;8.562;2022-09-24T10:18:14;100247.38;;;17.78;62.45
62333;BME280;48624;49.812;8.562;2022-09-24T10:20:50;100249.78;;;17.81;62.25
62333;BME280;48624;49.812;8.562;2022-09-24T10:23:21;100244.16;;;17.92;61.75
62333;BME280;48624;49.812;8.562;2022-09-24T10:26:17;100245.59;;;18.05;61.62
62333;BME280;48624;49.812;8.562;2022-09-24T10:29:29;100231.75;;;17.91;62.27
62333;BME280;48624;49.812;8.562;2022-09-24T10:32:22;100235.47;;;17.27;65.74
62333;BME280;48624;49.812;8.562;2022-09-24T10:34:59;100228.63;;;17.15;66.13
62333;BME280;48624;49.812;8.562;2022-09-24T10:37:28;100225.69;;;17.63;64.57
62333;BME280;48624;49.812;8.562;2022-09-24T10:39:58;100217.41;;;18.00;63.51
62333;BME280;48624;49.812;8.562;2022-09-24T10:42:34;100220.41;;;18.67;60.69
62333;BME280;48624;49.812;8.562;2022-09-24T10:45:02;100223.53;;;18.54;60.83
62333;BME280;48624;49.812;8.562;2022-09-24T10:47:52;100221.00;;;19.04;58.83
62333;BME280;48624;49.812;8.562;2022-09-24T10:50:54;100219.28;;;18.94;60.22
62333;BME280;48624;49.812;8.562;2022-09-24T10:53:44;100220.94;;;18.95;60.35
62333;BME280;48624;49.812;8.562;2022-09-24T10:56:38;100221.34;;;19.34;58.59
62333;BME280;48624;49.812;8.562;2022-09-24T11:04:58;100203.06;;;19.46;57.21
62333;BME280;48624;49.812;8.562;2022-09-24T11:07:47;100209.22;;;19.88;56.75
62333;BME280;48624;49.812;8.562;2022-09-24T11:13:09;100200.09;;;20.85;52.77
62333;BME280;48624;49.812;8.562;2022-09-24T11:16:26;100203.13;;;20.90;52.21
62333;BME280;48624;49.812;8.562;2022-09-24T11:21:32;100189.72;;;20.74;53.21
62333;BME280;48624;49.812;8.562;2022-09-24T11:24:21;100180.44;;;20.85;51.10
62333;BME280;48624;49.812;8.562;2022-09-24T11:30:08;100178.78;;;20.75;51.34
62333;BME280;48624;49.812;8.562;2022-09-24T11:32:58;100185.47;;;20.88;51.38
62333;BME280;48624;49.812;8.562;2022-09-24T11:35:46;100178.50;;;20.93;51.52
62333;BME280;48624;49.812;8.562;2022-09-24T11:42:02;100193.84;;;21.55;49.28
62333;BME280;48624;49.812;8.562;2022-09-24T11:50:49;100188.00;;;20.81;52.05
62333;BME280;48624;49.812;8.562;2022-09-24T11:56:26;100180.66;;;21.21;51.50
62333;BME280;48624;49.812;8.562;2022-09-24T12:01:31;100178.97;;;21.59;50.94
62333;BME280;48624;49.812;8.562;2022-09-24T12:04:09;100165.41;;;21.52;51.72
62333;BME280;48624;49.812;8.562;2022-09-24T12:06:43;100162.94;;;21.81;51.20
62333;BME280;48624;49.812;8.562;2022-09-24T12:09:36;100159.34;;;22.40;48.40
62333;BME280;48624;49.812;8.562;2022-09-24T12:12:08;100148.78;;;21.63;51.09
62333;BME280;48624;49.812;8.562;2022-09-24T12:17:15;100149.00;;;21.92;51.15
62333;BME280;48624;49.812;8.562;2022-09-24T12:22:16;100150.44;;;22.40;48.42
62333;BME280;48624;49.812;8.562;2022-09-24T12:24:56;100145.72;;;22.64;48.02
62333;BME280;48624;49.812;8.562;2022-09-24T12:27:35;100144.56;;;22.73;43.67
62333;BME280;48624;49.812;8.562;2022-09-24T12:30:05;100152.66;;;22.95;43.76
62333;BME280;48624;49.812;8.562;2022-09-24T12:33:05;100138.22;;;23.03;42.77
62333;BME280;48624;49.812;8.562;2022-09-24T12:35:54;100136.53;;;22.58;43.05
62333;BME280;48624;49.812;8.562;2022-09-24T12:38:50;100129.00;;;22.01;43.45
62333;BME280;48624;49.812;8.562;2022-09-24T12:41:22;100123.94;;;22.13;44.62
62333;BME280;48624;49.812;8.562;2022-09-24T12:46:55;100131.69;;;22.16;45.38
62333;BME280;48624;49.812;8.562;2022-09-24T12:49:33;100120.91;;;21.71;46.56
62333;BME280;48624;49.812;8.562;2022-09-24T12:52:23;100113.56;;;21.95;45.20
62333;BME280;48624;49.812;8.562;2022-09-24T12:55:00;100118.22;;;21.71;46.66
62333;BME280;48624;49.812;8.562;2022-09-24T12:57:49;100120.09;;;21.71;47.38
62333;BME280;48624;49.812;8.562;2022-09-24T13:03:42;100126.22;;;21.80;46.15
62333;BME280;48624;49.812;8.562;2022-09-24T13:06:32;100121.97;;;21.47;47.68
62333;BME280;48624;49.812;8.562;2022-09-24T13:15:46;100117.38;;;21.56;46.34
62333;BME280;48624;49.812;8.562;2022-09-24T13:17:42;100114.28;;;21.59;46.96
62333;BME280;48624;49.812;8.562;2022-09-24T13:20:21;100117.69;;;21.38;47.42
62333;BME280;48624;49.812;8.562;2022-09-24T13:25:58;100106.13;;;21.52;47.82
62333;BME280;48624;49.812;8.562;2022-09-24T13:28:31;100112.03;;;21.17;48.98
62333;BME280;48624;49.812;8.562;2022-09-24T13:31:19;100113.38;;;21.13;48.69
62333;BME280;48624;49.812;8.562;2022-09-24T13:33:50;100104.50;;;21.28;49.37
62333;BME280;48624;49.812;8.562;2022-09-24T13:36:20;100119.81;;;20.89;49.71
62333;BME280;48624;49.812;8.562;2022-09-24T13:38:54;100118.16;;;21.26;49.60
62333;BME280;48624;49.812;8.562;2022-09-24T13:44:25;100118.06;;;21.19;49.92
62333;BME280;48624;49.812;8.562;2022-09-24T13:47:12;100102.63;;;21.28;50.12
62333;BME280;48624;49.812;8.562;2022-09-24T13:49:44;100106.56;;;21.26;50.55
62333;BME280;48624;49.812;8.562;2022-09-24T13:57:51;100112.53;;;20.98;52.27
62333;BME280;48624;49.812;8.562;2022-09-24T14:00:20;100110.16;;;20.71;53.19
62333;BME280;48624;49.812;8.562;2022-09-24T14:06:31;100112.19;;;20.69;54.04
62333;BME280;48624;49.812;8.562;2022-09-24T14:09:00;100105.38;;;20.82;53.54
62333;BME280;48624;49.812;8.562;2022-09-24T14:11:25;100105.47;;;20.73;54.61
62333;BME280;48624;49.812;8.562;2022-09-24T14:13:54;100105.91;;;20.77;54.59
62333;BME280;48624;49.812;8.562;2022-09-24T14:16:40;100091.69;;;20.68;55.48
62333;BME280;48624;49.812;8.562;2022-09-24T14:19:33;100101.59;;;20.68;55.42
62333;BME280;48624;49.812;8.562;2022-09-24T14:22:05;100107.41;;;20.79;54.95
62333;BME280;48624;49.812;8.562;2022-09-24T14:25:03;100103.25;;;20.54;55.84
62333;BME280;48624;49.812;8.562;2022-09-24T14:27:59;100101.97;;;20.64;55.12
62333;BME280;48624;49.812;8.562;2022-09-24T14:30:34;100099.31;;;20.33;55.51
62333;BME280;48624;49.812;8.562;2022-09-24T14:33:24;100099.63;;;20.38;56.33
62333;BME280;48624;49.812;8.562;2022-09-24T14:36:00;100089.84;;;20.69;55.06
62333;BME280;48624;49.812;8.562;2022-09-24T14:38:34;100081.63;;;20.62;55.48
62333;BME280;48624;49.812;8.562;2022-09-24T14:41:23;100083.44;;;20.70;55.09
62333;BME280;48624;49.812;8.562;2022-09-24T14:44:07;100089.69;;;20.62;55.32
62333;BME280;48624;49.812;8.562;2022-09-24T14:46:48;100071.81;;;21.31;53.04
62333;BME280;48624;49.812;8.562;2022-09-24T14:49:42;100078.06;;;20.70;55.91
62333;BME280;48624;49.812;8.562;2022-09-24T14:52:52;100081.56;;;20.47;56.25
62333;BME280;48624;49.812;8.562;2022-09-24T14:55:20;100078.16;;;20.53;56.88
62333;BME280;48624;49.812;8.562;2022-09-24T14:57:49;100078.81;;;20.78;55.86
62333;BME280;48624;49.812;8.562;2022-09-24T15:00:24;100076.94;;;20.64;56.87
62333;BME280;48624;49.812;8.562;2022-09-24T15:03:03;100075.09;;;20.79;56.27
62333;BME280;48624;49.812;8.562;2022-09-24T15:05:36;100078.94;;;20.85;56.57